Time;durP1;ratioP1;P1;durP2;ratioP2;P2;SDS_P1;SDS_P2;PMS_P1;PMS_P2;Temp;Humidity;BMP_temperature;BMP_pressure;BME280_temperature;BME280_humidity;BME280_pressure;Samples;Min_cycle;Max_cycle;Signal;HPM_P1;HPM_P2
2021/06/08 00:00:43;;;;;;;13.48;12.00;;;20.40;99.90;;;20.71;58.01;102246.03;5091806;28;20093;-64
2021/06/08 00:03:11;;;;;;;14.05;12.05;;;20.30;99.90;;;20.63;58.17;102251.63;5093058;28;20098;-65
2021/06/08 00:05:38;;;;;;;18.08;12.80;;;20.20;99.90;;;20.29;59.25;102250.59;5091218;28;20062;-64
2021/06/08 00:08:07;;;;;;;14.70;12.00;;;20.00;99.90;;;20.29;59.84;102247.91;5092670;28;20551;-63
2021/06/08 00:10:35;;;;;;;14.88;13.25;;;19.90;99.90;;;20.04;60.41;102239.47;5092691;28;20040;-63
2021/06/08 00:13:03;;;;;;;18.05;13.43;;;19.80;99.90;;;19.82;61.18;102242.66;5092991;28;20044;-64
2021/06/08 00:15:32;;;;;;;15.20;13.65;;;19.60;99.90;;;19.94;61.30;102247.78;5092919;28;20105;-64
2021/06/08 00:18:00;;;;;;;13.77;12.27;;;19.60;99.90;;;19.69;62.02;102233.94;5092651;28;20056;-65
2021/06/08 00:20:29;;;;;;;15.60;14.05;;;19.30;99.90;;;19.50;62.77;102237.91;5092866;28;20286;-64
2021/06/08 00:22:57;;;;;;;17.55;14.70;;;19.20;99.90;;;19.44;63.60;102243.38;5092808;28;20067;-64
2021/06/08 00:25:26;;;;;;;16.67;14.40;;;19.00;99.90;;;19.45;63.64;102245.19;5092686;28;20044;-63
2021/06/08 00:27:54;;;;;;;15.88;13.68;;;19.00;99.90;;;19.40;63.93;102244.34;5092744;28;20117;-63
2021/06/08 00:30:24;;;;;;;16.10;14.40;;;19.00;99.90;;;19.37;64.35;102237.28;5091352;28;20524;-63
2021/06/08 00:32:53;;;;;;;15.68;14.02;;;18.90;99.90;;;19.46;64.44;102249.63;5091436;28;20052;-65
2021/06/08 00:35:22;;;;;;;15.60;13.45;;;18.90;99.90;;;19.61;64.28;102252.91;5092229;28;20066;-64
2021/06/08 00:37:50;;;;;;;18.95;14.98;;;19.10;99.90;;;19.47;64.19;102237.97;5092283;28;20093;-63
2021/06/08 00:40:18;;;;;;;17.42;15.52;;;19.10;99.90;;;19.66;64.72;102252.81;5091151;28;20097;-64
2021/06/08 00:42:46;;;;;;;18.35;14.43;;;19.20;99.90;;;19.65;64.58;102245.66;5091045;28;20055;-63
2021/06/08 00:45:16;;;;;;;16.67;14.88;;;19.20;99.90;;;19.73;64.83;102241.91;5092465;28;20482;-63
2021/06/08 00:47:44;;;;;;;17.83;15.38;;;19.30;99.90;;;19.76;64.90;102240.97;5100424;28;20055;-63
2021/06/08 00:50:14;;;;;;;20.23;16.83;;;19.30;99.90;;;19.80;65.05;102245.38;5094351;28;20048;-63
2021/06/08 00:52:42;;;;;;;20.97;17.17;;;19.40;99.90;;;19.49;66.13;102246.88;5112583;28;20441;-63
2021/06/08 00:55:11;;;;;;;19.75;16.40;;;19.20;99.90;;;19.48;66.64;102246.00;5112540;28;20131;-63
2021/06/08 00:57:40;;;;;;;19.27;16.60;;;19.10;99.90;;;19.49;66.64;102245.06;5112324;28;20496;-64
2021/06/08 01:00:09;;;;;;;19.15;17.05;;;19.10;99.90;;;19.49;66.82;102245.06;5112654;28;20071;-63
2021/06/08 01:02:37;;;;;;;20.73;18.17;;;19.10;99.90;;;19.36;66.84;102216.69;5112884;28;20056;-63
2021/06/08 01:05:09;;;;;;;20.15;18.05;;;19.10;99.90;;;19.47;67.25;102246.03;5112460;28;20362;-63
2021/06/08 01:07:40;;;;;;;18.92;16.92;;;19.10;99.90;;;19.54;67.23;102250.34;5112661;28;20101;-63
2021/06/08 01:10:10;;;;;;;23.02;18.45;;;19.10;99.90;;;19.57;67.29;102244.91;5094453;28;20443;-64
2021/06/08 01:12:38;;;;;;;20.00;17.83;;;19.10;99.90;;;19.45;67.68;102243.34;5116736;28;20078;-64
2021/06/08 01:15:08;;;;;;;21.83;18.02;;;19.10;99.90;;;19.47;68.06;102246.91;5116355;28;20516;-63
2021/06/08 01:17:36;;;;;;;23.85;20.30;;;19.10;99.90;;;19.36;68.56;102240.84;5116641;28;20044;-63
2021/06/08 01:20:08;;;;;;;21.00;18.45;;;19.00;99.90;;;19.43;68.42;102241.63;5116266;28;20119;-63
2021/06/08 01:22:37;;;;;;;24.98;19.80;;;19.00;99.90;;;19.24;68.74;102233.00;5116554;28;20480;-63
2021/06/08 01:25:07;;;;;;;24.33;19.33;;;19.00;99.90;;;19.33;69.12;102242.72;5116010;28;20116;-63
2021/06/08 01:27:35;;;;;;;22.67;18.60;;;18.90;99.90;;;19.36;69.32;102231.91;5098134;28;20047;-63
2021/06/08 01:30:06;;;;;;;22.85;19.13;;;19.00;99.90;;;19.41;69.22;102235.41;5116170;28;20075;-63
2021/06/08 01:32:38;;;;;;;23.17;19.73;;;19.00;99.90;;;19.47;69.07;102222.75;5116411;28;20054;-65
2021/06/08 01:35:10;;;;;;;23.83;20.65;;;19.10;99.90;;;19.43;69.22;102230.91;5116336;28;20177;-63
2021/06/08 01:37:41;;;;;;;21.85;18.77;;;19.10;99.90;;;18.98;70.58;102212.91;5116240;28;20048;-63
2021/06/08 01:40:15;;;;;;;27.60;20.85;;;18.80;99.90;;;18.77;71.41;102225.78;5116127;28;20081;-63
2021/06/08 01:42:44;;;;;;;24.67;20.42;;;18.60;99.90;;;18.92;71.73;102224.63;5116186;28;20104;-63
2021/06/08 01:45:15;;;;;;;24.10;21.20;;;18.50;99.90;;;18.77;72.13;102232.94;5115926;28;20443;-63
2021/06/08 01:47:43;;;;;;;24.25;21.48;;;18.50;99.90;;;18.76;72.40;102231.16;5115882;28;20101;-63
2021/06/08 01:50:12;;;;;;;24.40;20.67;;;18.40;99.90;;;18.75;72.54;102226.72;5115911;28;20048;-63
2021/06/08 01:52:49;;;;;;;24.13;21.20;;;18.40;99.90;;;18.45;73.37;102222.72;5115695;28;20043;-63
2021/06/08 01:55:21;;;;;;;25.23;21.08;;;18.20;99.90;;;18.44;73.69;102217.38;5115661;28;20451;-65
2021/06/08 01:57:53;;;;;;;24.75;22.15;;;18.10;99.90;;;18.39;73.94;102217.41;5115942;28;20044;-63
2021/06/08 02:00:34;;;;;;;26.00;21.65;;;18.00;99.90;;;18.55;73.85;102226.13;5115728;28;20051;-63
2021/06/08 02:03:08;;;;;;;;;;;18.10;99.90;;;18.54;73.73;102222.56;5116590;28;20385;-63
2021/06/08 02:05:50;;;;;;;27.25;22.48;;;18.20;99.90;;;18.67;73.55;102221.47;5115401;28;20407;-63
2021/06/08 02:08:33;;;;;;;24.92;22.23;;;18.30;99.90;;;18.66;73.34;102225.06;5115768;28;20051;-64
2021/06/08 02:11:08;;;;;;;26.25;21.85;;;18.30;99.90;;;18.80;72.98;102224.84;5115417;28;20039;-64
2021/06/08 02:13:48;;;;;;;25.90;21.90;;;18.40;99.90;;;18.32;72.82;102127.31;5115627;28;20123;-63
2021/06/08 02:16:20;;;;;;;27.87;21.50;;;18.50;99.90;;;19.01;72.43;102227.16;5115326;28;20075;-64
2021/06/08 02:18:50;;;;;;;25.77;21.58;;;18.60;99.90;;;19.07;71.90;102223.47;5115579;28;20325;-63
2021/06/08 02:21:22;;;;;;;26.48;21.85;;;18.70;99.90;;;19.11;71.71;102231.44;5115242;28;20096;-64
2021/06/08 02:23:54;;;;;;;24.95;21.13;;;18.70;99.90;;;19.19;71.46;102231.31;5115468;28;20074;-66
2021/06/08 02:26:25;;;;;;;25.20;22.42;;;18.80;99.90;;;19.19;71.53;102239.34;5096829;28;20059;-64
2021/06/08 02:28:55;;;;;;;25.50;22.17;;;18.80;99.90;;;19.25;71.47;102241.94;5096905;28;20096;-64
2021/06/08 02:31:24;;;;;;;28.63;21.30;;;18.90;99.90;;;19.27;71.28;102240.09;5115061;28;20040;-64
2021/06/08 02:33:54;;;;;;;24.05;21.42;;;18.90;99.90;;;19.20;71.17;102235.78;5115170;28;20069;-65
2021/06/08 02:36:23;;;;;;;26.23;21.35;;;18.90;99.90;;;19.34;70.70;102245.38;5115062;28;20130;-64
2021/06/08 02:38:55;;;;;;;22.88;20.42;;;18.90;99.90;;;19.26;70.60;102231.16;5114832;28;20044;-64
2021/06/08 02:41:24;;;;;;;25.02;21.45;;;18.90;99.90;;;19.37;70.35;102250.69;5115070;28;20055;-64
2021/06/08 02:43:54;;;;;;;23.23;20.65;;;18.90;99.90;;;19.38;70.13;102248.88;5114985;28;20126;-63
2021/06/08 02:46:24;;;;;;;25.27;21.13;;;19.00;99.90;;;19.39;70.16;102248.88;5114789;28;20108;-63
2021/06/08 02:48:53;;;;;;;23.92;21.05;;;19.00;99.90;;;19.28;69.99;102229.34;5114434;28;20408;-63
2021/06/08 02:51:23;;;;;;;24.02;21.52;;;19.00;99.90;;;19.45;70.01;102251.41;5114805;28;20048;-63
2021/06/08 02:53:54;;;;;;;24.38;21.58;;;19.00;99.90;;;19.49;69.86;102252.25;5114829;28;20048;-65
2021/06/08 02:56:22;;;;;;;;;;;19.00;99.90;;;19.49;69.85;102261.19;5115027;28;20054;-63
2021/06/08 02:58:52;;;;;;;23.48;20.42;;;19.10;99.90;;;19.48;69.70;102261.22;5114398;28;20437;-63
2021/06/08 03:01:21;;;;;;;25.70;22.53;;;19.10;99.90;;;19.52;69.69;102265.59;5114379;28;20039;-63
2021/06/08 03:03:55;;;;;;;24.67;21.90;;;19.10;99.90;;;19.57;69.68;102266.41;5114614;28;20300;-64
2021/06/08 03:06:28;;;;;;;25.35;22.58;;;19.10;99.90;;;19.50;69.60;102254.91;5114491;28;20058;-64
2021/06/08 03:09:03;;;;;;;24.92;21.60;;;19.10;99.90;;;19.28;69.92;102256.16;5114310;28;20488;-64
2021/06/08 03:11:38;;;;;;;27.75;23.17;;;19.00;99.90;;;19.19;69.98;102237.56;5095830;28;20062;-63
2021/06/08 03:14:08;;;;;;;25.23;22.48;;;18.90;99.90;;;19.24;70.28;102254.44;5114507;28;20078;-63
2021/06/08 03:16:42;;;;;;;24.00;21.35;;;18.90;99.90;;;19.26;70.40;102258.00;5114175;28;20046;-64
2021/06/08 03:19:13;;;;;;;26.95;22.40;;;18.90;99.90;;;19.17;70.33;102257.28;5114336;28;20055;-64
2021/06/08 03:21:43;;;;;;;24.98;22.25;;;18.80;99.90;;;19.08;70.48;102257.44;5114289;28;20035;-63
2021/06/08 03:24:14;;;;;;;27.70;22.65;;;18.70;99.90;;;18.99;70.84;102257.63;5114507;28;20496;-64
2021/06/08 03:26:45;;;;;;;29.80;23.58;;;18.60;99.90;;;18.83;71.49;102256.97;5095397;28;20054;-63
2021/06/08 03:29:15;;;;;;;;;;;18.50;99.90;;;18.67;72.09;102259.00;5114538;28;20163;-64
2021/06/08 03:31:46;;;;;;;31.27;24.58;;;18.40;99.90;;;18.63;71.85;102237.63;5095639;28;19924;-63
2021/06/08 03:34:16;;;;;;;27.70;23.60;;;18.30;99.90;;;18.74;71.90;102255.31;5113650;28;20114;-63
2021/06/08 03:36:47;;;;;;;25.48;22.20;;;18.30;99.90;;;18.84;71.74;102258.72;5113972;28;20050;-63
2021/06/08 03:39:17;;;;;;;25.23;22.52;;;18.40;99.90;;;18.85;71.64;102264.06;5113630;28;20455;-64
2021/06/08 03:41:47;;;;;;;26.27;22.65;;;18.40;99.90;;;18.90;71.30;102264.00;5095209;28;20044;-63
2021/06/08 03:44:18;;;;;;;25.83;23.00;;;18.50;99.90;;;18.98;71.26;102261.19;5095480;28;20052;-64
2021/06/08 03:46:47;;;;;;;24.27;21.50;;;18.60;99.90;;;19.04;70.86;102269.13;5113728;28;20047;-64
2021/06/08 03:49:17;;;;;;;26.83;21.95;;;18.60;99.90;;;19.10;70.63;102261.00;5091513;28;20486;-64
2021/06/08 03:51:50;;;;;;;27.63;22.77;;;18.60;99.90;;;19.17;70.42;102262.63;5093349;28;20044;-63
2021/06/08 03:54:20;;;;;;;27.33;22.52;;;18.70;99.90;;;19.07;70.37;102269.06;5093038;28;20097;-63
2021/06/08 03:56:52;;;;;;;27.73;22.55;;;18.70;99.90;;;18.95;70.38;102264.78;5093298;28;20059;-63
2021/06/08 03:59:24;;;;;;;25.38;21.83;;;18.60;99.90;;;19.07;70.39;102277.13;5093218;28;20040;-63
2021/06/08 04:01:54;;;;;;;25.88;20.42;;;18.60;99.90;;;18.90;70.03;102248.81;5093242;28;20047;-63
2021/06/08 04:04:23;;;;;;;25.20;22.20;;;18.60;99.90;;;19.00;69.86;102268.31;5092654;28;20048;-64
2021/06/08 04:06:51;;;;;;;24.30;21.50;;;18.60;99.90;;;18.96;70.02;102273.75;5092935;28;20036;-63
2021/06/08 04:09:20;;;;;;;27.08;22.52;;;18.60;99.90;;;18.68;70.40;102271.50;5093011;28;20052;-64
2021/06/08 04:11:51;;;;;;;24.52;21.83;;;18.40;99.90;;;18.71;70.82;102268.78;5092677;28;20132;-67
2021/06/08 04:14:20;;;;;;;25.15;21.52;;;18.30;99.90;;;18.73;70.71;102266.06;5092642;28;20048;-63
2021/06/08 04:16:49;;;;;;;25.15;21.00;;;18.40;99.90;;;18.59;70.86;102268.97;5092842;28;20040;-62
2021/06/08 04:19:17;;;;;;;24.98;20.83;;;18.30;99.90;;;18.66;70.89;102275.13;5092574;28;20052;-63
2021/06/08 04:21:51;;;;;;;25.50;21.08;;;18.30;99.90;;;18.71;70.92;102266.09;5092841;28;20116;-63
2021/06/08 04:24:20;;;;;;;24.85;22.15;;;18.30;99.90;;;18.63;70.92;102269.78;5092850;28;20051;-63
2021/06/08 04:26:48;;;;;;;22.25;19.80;;;18.30;99.90;;;18.53;70.96;102269.03;5092766;28;20052;-64
2021/06/08 04:29:16;;;;;;;24.50;20.30;;;18.20;99.90;;;18.67;70.95;102274.19;5092424;28;20089;-64
2021/06/08 04:31:45;;;;;;;22.52;20.10;;;18.30;99.90;;;18.69;70.87;102261.66;5092772;28;20052;-64
2021/06/08 04:34:18;;;;;;;21.05;18.98;;;18.30;99.90;;;18.83;70.46;102273.94;5092288;28;20048;-64
2021/06/08 04:36:46;;;;;;;23.58;21.08;;;18.40;99.90;;;18.85;70.37;102271.25;5091281;28;20099;-64
2021/06/08 04:39:14;;;;;;;22.70;20.30;;;18.50;99.90;;;18.95;70.09;102270.16;5091196;28;20043;-64
2021/06/08 04:41:46;;;;;;;22.20;19.77;;;18.60;99.90;;;19.03;69.99;102276.28;5092266;28;20048;-64
2021/06/08 04:44:17;;;;;;;23.50;19.73;;;18.60;99.90;;;19.12;69.68;102280.63;5092116;28;20142;-64
2021/06/08 04:46:45;;;;;;;22.05;19.33;;;18.70;99.90;;;19.17;69.77;102278.72;5091513;28;20433;-64
2021/06/08 04:49:16;;;;;;;24.05;18.83;;;18.80;99.90;;;19.26;69.19;102283.97;5110593;28;20082;-64
2021/06/08 04:51:43;;;;;;;21.73;19.00;;;18.80;99.90;;;19.20;68.95;102281.38;5112054;28;20040;-64
2021/06/08 04:54:12;;;;;;;23.60;18.10;;;18.90;99.90;;;19.35;68.79;102283.81;5111836;28;20052;-65
2021/06/08 04:56:40;;;;;;;21.38;18.23;;;18.90;99.90;;;19.34;68.26;102284.72;5093245;28;20078;-64
2021/06/08 04:59:13;;;;;;;21.55;18.42;;;19.00;99.90;;;19.43;68.08;102282.78;5111870;28;20430;-64
2021/06/08 05:01:43;;;;;;;21.27;19.08;;;19.00;99.90;;;19.44;67.72;102289.91;5093595;28;20511;-64
2021/06/08 05:04:15;;;;;;;20.42;17.92;;;19.10;99.90;;;19.18;67.50;102286.75;5111462;28;20083;-64
2021/06/08 05:06:53;;;;;;;21.33;18.25;;;19.00;99.90;;;18.65;70.28;102286.75;5093420;28;20058;-66
2021/06/08 05:09:24;;;;;;;20.27;18.17;;;18.50;99.90;;;18.67;70.60;102283.13;5111850;28;20101;-63
2021/06/08 05:11:55;;;;;;;21.20;17.83;;;18.30;99.90;;;18.53;70.06;102286.91;5111501;28;20044;-64
2021/06/08 05:14:30;;;;;;;22.48;19.50;;;18.30;99.90;;;18.20;71.50;102280.19;5111834;28;20123;-63
2021/06/08 05:16:59;;;;;;;19.75;17.63;;;18.00;99.90;;;18.47;70.90;102282.53;5093384;28;20501;-63
2021/06/08 05:19:27;;;;;;;24.50;20.15;;;18.10;99.90;;;18.29;70.80;102289.91;5111631;28;20052;-64
2021/06/08 05:21:56;;;;;;;23.13;19.33;;;18.10;99.90;;;18.20;71.22;102288.22;5111672;28;20113;-64
2021/06/08 05:24:24;;;;;;;21.88;19.42;;;17.90;99.90;;;18.53;71.27;102295.84;5111180;28;20134;-66
2021/06/08 05:26:53;;;;;;;23.88;18.92;;;18.00;99.90;;;18.25;71.31;102293.53;5111559;28;20071;-65
2021/06/08 05:29:23;;;;;;;21.40;18.17;;;17.90;99.90;;;18.61;71.26;102279.66;5093163;28;20046;-64
2021/06/08 05:31:58;;;;;;;21.95;17.55;;;18.20;99.90;;;18.68;69.92;102286.69;5093217;28;20047;-65
2021/06/08 05:34:26;;;;;;;24.52;17.95;;;18.30;99.90;;;18.63;70.15;102291.25;5093234;28;20047;-65
2021/06/08 05:36:55;;;;;;;25.98;17.33;;;18.30;99.90;;;18.39;71.35;102287.06;5111128;28;20051;-67
2021/06/08 05:39:23;;;;;;;19.10;17.10;;;18.10;99.90;;;18.66;71.01;102284.03;5093090;28;20058;-66
2021/06/08 05:41:51;;;;;;;25.63;18.83;;;18.30;99.90;;;18.91;70.59;102288.09;5111226;28;20056;-66
2021/06/08 05:44:19;;;;;;;19.38;17.38;;;18.50;99.90;;;18.78;70.53;102286.53;5092990;28;20055;-66
2021/06/08 05:46:49;;;;;;;19.50;16.83;;;18.40;99.90;;;18.79;69.54;102282.94;5092989;28;20371;-66
2021/06/08 05:49:18;;;;;;;20.05;16.50;;;18.40;99.90;;;18.81;69.58;102280.25;4522897;28;15107856;-66
2021/06/08 05:51:47;;;;;;;20.13;17.50;;;18.40;99.90;;;19.11;69.28;102290.47;5093968;28;20113;-66
2021/06/08 05:54:16;;;;;;;22.70;18.10;;;18.70;99.90;;;19.07;69.39;102287.84;5093860;28;20477;-65
2021/06/08 05:56:44;;;;;;;19.63;16.25;;;18.70;99.90;;;19.38;68.45;102289.13;5094859;28;20187;-66
2021/06/08 05:59:16;;;;;;;18.75;16.60;;;18.90;99.90;;;19.08;67.81;102292.31;5115584;28;20500;-66
2021/06/08 06:01:45;;;;;;;18.80;16.77;;;18.70;99.90;;;19.21;68.99;102289.41;5097377;28;20051;-66
2021/06/08 06:04:16;;;;;;;18.90;16.02;;;18.90;99.90;;;19.32;68.91;102295.50;5115463;28;20131;-67
2021/06/08 06:06:46;;;;;;;20.05;15.88;;;18.90;99.90;;;19.43;67.97;102296.22;5115264;28;20553;-67
2021/06/08 06:09:16;;;;;;;17.83;15.90;;;19.00;99.90;;;19.71;67.67;102299.25;5097273;28;20048;-66
2021/06/08 06:11:49;;;;;;;17.65;14.77;;;19.20;99.90;;;19.48;66.07;102298.78;5115637;28;20039;-66
2021/06/08 06:14:21;;;;;;;17.33;14.98;;;19.20;99.90;;;19.37;66.76;102296.31;5115604;28;20047;-66
2021/06/08 06:16:52;;;;;;;18.85;16.27;;;19.00;99.90;;;19.49;66.18;102292.53;5115544;28;20062;-66
2021/06/08 06:19:22;;;;;;;19.85;14.70;;;19.10;99.90;;;19.53;65.83;102299.59;5115159;28;20135;-63
2021/06/08 06:21:55;;;;;;;18.05;14.65;;;19.10;99.90;;;19.35;66.17;102298.16;5115412;28;20127;-64
2021/06/08 06:24:24;;;;;;;16.17;14.15;;;19.00;99.90;;;19.48;66.47;102299.69;5096969;28;20063;-65
2021/06/08 06:26:52;;;;;;;17.08;15.07;;;19.10;99.90;;;19.48;66.84;102296.09;5114818;28;20044;-64
2021/06/08 06:29:20;;;;;;;17.17;15.25;;;19.10;99.90;;;19.53;66.24;102302.28;5114806;28;20047;-64
2021/06/08 06:31:49;;;;;;;18.05;14.88;;;19.10;99.90;;;19.70;66.18;102322.53;5096572;28;20039;-64
2021/06/08 06:34:21;;;;;;;18.50;14.52;;;19.20;99.90;;;19.85;65.79;102299.88;5114798;28;20206;-63
2021/06/08 06:36:49;;;;;;;18.17;14.60;;;19.40;99.90;;;19.97;64.61;102299.63;5115148;28;20071;-64
2021/06/08 06:39:22;;;;;;;20.15;15.00;;;19.60;99.90;;;20.00;64.74;102304.94;5115054;28;20044;-63
2021/06/08 06:41:54;;;;;;;17.70;13.85;;;19.60;99.90;;;20.23;64.68;102300.00;5114988;28;20074;-66
2021/06/08 06:44:24;;;;;;;20.65;15.90;;;19.80;99.90;;;20.43;64.73;102302.25;5115242;28;20093;-65
2021/06/08 06:46:53;;;;;;;;;;;20.00;99.90;;;20.61;63.98;102301.84;5115238;28;20044;-62
2021/06/08 06:49:22;;;;;;;19.15;14.07;;;20.30;99.90;;;20.52;63.51;102305.63;5114718;28;20021;-63
2021/06/08 06:51:50;;;;;;;16.70;13.63;;;20.20;99.90;;;20.57;63.82;102298.34;5095998;28;20063;-62
2021/06/08 06:54:20;;;;;;;18.77;13.05;;;20.30;99.90;;;20.62;62.70;102304.50;5114441;28;20051;-65
2021/06/08 06:56:48;;;;;;;21.13;13.88;;;20.30;99.90;;;20.63;61.33;102306.25;5096008;28;20060;-66
2021/06/08 06:59:16;;;;;;;15.52;13.07;;;20.30;99.90;;;20.64;60.76;102285.63;5114563;28;20781;-65
2021/06/08 07:01:46;;;;;;;13.52;11.95;;;20.40;99.90;;;20.35;60.37;102293.47;5114247;28;20501;-66
2021/06/08 07:04:17;;;;;;;15.20;12.27;;;20.20;99.90;;;19.97;61.43;102237.84;5114472;28;20032;-65
2021/06/08 07:06:45;;;;;;;15.30;12.27;;;20.10;99.90;;;20.64;61.04;102302.66;5114053;28;20549;-66
2021/06/08 07:09:14;;;;;;;16.90;12.07;;;20.20;99.90;;;20.72;60.27;102305.16;5113132;28;20047;-66
2021/06/08 07:11:45;;;;;;;14.68;11.95;;;20.30;99.90;;;20.62;60.44;102300.91;5114405;28;20043;-65
2021/06/08 07:14:13;;;;;;;17.02;11.68;;;20.30;99.90;;;20.69;60.91;102299.88;5114070;28;20044;-66
2021/06/08 07:16:41;;;;;;;13.90;11.95;;;20.30;99.90;;;20.59;60.77;102277.69;5114046;28;20059;-66
2021/06/08 07:19:13;;;;;;;12.93;11.65;;;20.30;99.90;;;20.78;60.86;102305.03;5095644;28;20472;-66
2021/06/08 07:21:43;;;;;;;12.52;11.23;;;20.30;99.90;;;20.71;60.63;102287.28;5114240;28;20060;-66
2021/06/08 07:24:12;;;;;;;12.88;11.45;;;20.40;99.90;;;20.81;59.93;102299.56;5095891;28;20483;-66
2021/06/08 07:26:41;;;;;;;13.85;11.90;;;20.50;99.90;;;21.24;60.21;102304.81;5095290;28;20450;-67
2021/06/08 07:29:12;;;;;;;15.10;11.00;;;20.80;99.90;;;21.47;58.82;102307.78;5113796;28;20078;-67
2021/06/08 07:31:48;;;;;;;14.57;10.57;;;21.10;99.90;;;21.48;58.44;102288.03;5113997;28;20047;-67
2021/06/08 07:34:24;;;;;;;12.60;10.63;;;21.20;99.90;;;21.03;58.25;102305.34;5113993;28;20130;-66
2021/06/08 07:36:55;;;;;;;13.13;10.63;;;20.80;99.90;;;21.36;58.29;102304.50;5113703;28;20047;-67
2021/06/08 07:39:29;;;;;;;14.32;10.82;;;20.90;99.90;;;21.60;57.37;102302.97;5113585;28;20503;-66
2021/06/08 07:42:09;;;;;;;14.10;10.98;;;21.20;99.90;;;21.54;58.16;102301.34;5113634;28;20048;-66
2021/06/08 07:44:46;;;;;;;14.02;10.68;;;21.10;99.90;;;21.73;56.35;102304.41;5113797;28;20139;-66
2021/06/08 07:47:17;;;;;;;13.45;10.20;;;21.30;99.90;;;21.38;56.46;102303.56;5113421;28;20043;-67
2021/06/08 07:49:49;;;;;;;11.73;9.65;;;21.00;99.90;;;21.22;56.58;102295.91;5113563;28;20363;-66
2021/06/08 07:52:18;;;;;;;14.73;9.65;;;20.80;99.90;;;21.39;56.58;102299.03;5113275;28;20453;-67
2021/06/08 07:54:47;;;;;;;11.17;10.07;;;20.90;99.90;;;21.50;54.53;102302.34;5113296;28;20039;-67
2021/06/08 07:57:17;;;;;;;12.48;10.65;;;21.10;99.90;;;21.47;55.14;102300.59;5113028;28;20075;-66
2021/06/08 07:59:48;;;;;;;11.95;10.23;;;21.00;99.90;;;21.39;55.55;102302.63;5113329;28;20032;-66
2021/06/08 08:02:19;;;;;;;11.10;9.52;;;21.10;99.90;;;21.67;55.56;102272.25;5113190;28;20423;-67
2021/06/08 08:04:50;;;;;;;16.60;11.07;;;21.30;99.90;;;21.79;54.74;102301.56;5113329;28;20051;-66
2021/06/08 08:07:20;;;;;;;;;;;21.40;99.90;;;21.99;55.03;102292.00;5095377;28;20047;-66
2021/06/08 08:09:48;;;;;;;12.52;10.60;;;21.60;99.90;;;22.13;55.53;102276.31;5113039;28;20327;-66
2021/06/08 08:12:17;;;;;;;11.63;10.38;;;21.80;99.90;;;21.86;54.83;102306.75;5094786;28;20047;-66
2021/06/08 08:14:50;;;;;;;16.42;11.15;;;21.60;99.90;;;22.05;53.25;102293.63;5113132;28;20122;-66
2021/06/08 08:17:23;;;;;;;13.38;10.05;;;21.60;99.90;;;22.14;55.21;102296.94;5094786;28;20052;-67
2021/06/08 08:19:54;;;;;;;13.85;9.63;;;21.70;99.90;;;22.41;54.19;102288.03;5112898;28;20075;-66
2021/06/08 08:22:22;;;;;;;12.15;10.45;;;22.00;99.90;;;22.55;51.99;102300.22;5112945;28;20039;-66
2021/06/08 08:24:50;;;;;;;13.50;11.43;;;22.10;99.90;;;22.69;52.52;102284.50;5112977;28;20089;-66
2021/06/08 08:27:18;;;;;;;11.82;10.15;;;22.30;99.90;;;23.09;52.29;102274.19;5112607;28;20075;-68
2021/06/08 08:29:48;;;;;;;13.20;10.52;;;22.70;99.90;;;23.07;51.87;102290.41;5112498;28;20507;-66
2021/06/08 08:32:18;;;;;;;12.95;9.43;;;22.70;99.90;;;23.30;51.69;102287.84;5112978;28;20112;-65
2021/06/08 08:34:46;;;;;;;12.63;10.75;;;22.90;99.90;;;23.28;52.81;102281.59;5112776;28;20052;-65
2021/06/08 08:37:14;;;;;;;11.77;10.02;;;22.80;99.90;;;23.35;50.58;102276.91;5112479;28;20501;-65
2021/06/08 08:39:42;;;;;;;12.23;10.88;;;22.90;99.90;;;23.15;50.69;102280.25;5112638;28;20067;-65
2021/06/08 08:42:11;;;;;;;11.80;10.68;;;22.80;99.90;;;23.11;50.09;102265.06;5112801;28;20104;-65
2021/06/08 08:44:39;;;;;;;13.15;11.40;;;22.70;99.90;;;22.95;50.19;102277.34;5112448;28;20047;-65
2021/06/08 08:47:09;;;;;;;13.82;11.25;;;22.70;99.90;;;23.09;50.13;102280.44;5094366;28;20047;-66
2021/06/08 08:49:37;;;;;;;13.50;12.07;;;22.60;99.90;;;23.20;50.19;102267.47;5094214;28;20051;-65
2021/06/08 08:52:07;;;;;;;13.50;10.95;;;22.80;99.90;;;23.56;50.89;102280.66;5112671;28;20039;-65
2021/06/08 08:54:36;;;;;;;11.40;10.30;;;23.10;99.90;;;23.58;49.31;102279.66;5112609;28;20142;-65
2021/06/08 08:57:05;;;;;;;13.13;10.68;;;23.20;99.90;;;24.03;48.49;102274.44;5113163;28;20047;-65
2021/06/08 08:59:33;;;;;;;12.63;11.30;;;23.50;99.90;;;24.27;48.04;102276.22;5112507;28;20108;-65
2021/06/08 09:02:02;;;;;;;14.15;11.52;;;23.90;99.90;;;23.69;48.49;102268.47;5112283;28;20052;-66
2021/06/08 09:04:32;;;;;;;12.52;9.75;;;23.50;99.90;;;24.11;48.88;102273.22;5112566;28;20047;-65
2021/06/08 09:07:00;;;;;;;11.63;10.43;;;23.60;99.90;;;24.50;47.71;102278.00;5112516;28;20054;-65
2021/06/08 09:09:29;;;;;;;13.38;11.15;;;24.10;99.90;;;24.77;47.72;102277.81;5112192;28;20481;-64
2021/06/08 09:11:59;;;;;;;14.02;11.32;;;24.40;99.90;;;24.77;47.37;102237.22;5112460;28;20074;-65
2021/06/08 09:14:27;;;;;;;11.33;10.23;;;24.70;99.90;;;25.19;46.29;102279.66;5112380;28;20044;-65
2021/06/08 09:16:56;;;;;;;11.93;10.60;;;24.90;99.90;;;25.34;45.25;102290.75;5112364;28;20286;-66
2021/06/08 09:19:28;;;;;;;10.93;9.82;;;25.00;99.90;;;25.52;45.39;102280.97;5112072;28;20358;-65
2021/06/08 09:21:59;;;;;;;11.02;9.88;;;25.20;99.90;;;25.65;44.30;102274.94;5112166;28;20464;-65
2021/06/08 09:24:30;;;;;;;13.07;11.75;;;25.40;99.90;;;25.58;44.83;102281.59;5112109;28;20131;-65
2021/06/08 09:27:00;;;;;;;15.02;10.80;;;25.40;99.90;;;25.94;44.18;102277.22;5093941;28;20355;-66
2021/06/08 09:29:31;;;;;;;12.77;9.98;;;25.60;99.90;;;26.10;44.47;102288.28;5112552;28;20137;-66
2021/06/08 09:32:25;;;;;;;14.73;11.75;;;25.80;99.90;;;25.03;45.03;102287.56;5095586;28;20400;-66
2021/06/08 09:34:55;;;;;;;12.50;11.20;;;24.90;99.90;;;25.45;44.95;102282.19;5115961;28;20464;-66
2021/06/08 09:37:36;;;;;;;13.23;11.82;;;25.00;99.90;;;25.67;45.13;102288.41;5116271;28;20120;-65
2021/06/08 09:40:19;;;;;;;14.10;11.45;;;25.20;99.90;;;25.89;44.08;102279.28;5115957;28;20051;-65
2021/06/08 09:42:48;;;;;;;13.45;11.77;;;25.50;99.90;;;26.05;43.37;102275.84;5116115;28;20089;-65
2021/06/08 09:45:22;;;;;;;12.02;9.40;;;25.70;99.90;;;26.20;44.06;102288.72;5116021;28;20097;-66
2021/06/08 09:47:59;;;;;;;12.48;10.05;;;25.80;99.90;;;26.55;43.82;102274.38;5116023;28;20040;-66
2021/06/08 09:50:35;;;;;;;9.95;8.95;;;26.20;99.90;;;26.57;43.40;102267.03;5115869;28;20046;-65
2021/06/08 09:53:26;;;;;;;11.02;9.93;;;26.30;99.90;;;26.87;41.99;102278.28;5115755;28;20051;-65
2021/06/08 09:55:58;;;;;;;11.60;10.20;;;26.50;99.90;;;26.99;41.65;102270.38;5115564;28;20431;-65
2021/06/08 09:58:28;;;;;;;11.63;10.50;;;26.70;99.90;;;27.25;41.74;102288.06;5115726;28;20088;-65
2021/06/08 10:01:14;;;;;;;12.40;11.02;;;26.90;99.90;;;27.41;42.09;102289.94;5115728;28;20043;-67
2021/06/08 10:03:45;;;;;;;11.15;10.07;;;27.10;99.90;;;27.29;40.85;102282.38;5115550;28;20450;-65
2021/06/08 10:06:15;;;;;;;11.23;9.65;;;27.20;99.90;;;26.43;42.12;102280.38;5115664;28;20104;-65
2021/06/08 10:09:02;;;;;;;11.77;10.55;;;26.50;99.90;;;24.72;42.36;102279.81;5115352;28;20043;-66
2021/06/08 10:11:32;;;;;;;11.68;9.77;;;24.90;99.90;;;24.76;45.33;102243.56;5097133;28;20423;-66
2021/06/08 10:14:11;;;;;;;13.00;10.65;;;24.50;99.90;;;25.31;43.24;102280.03;5115894;28;20047;-66